sensor_id;sensor_type;location;lat;lon;timestamp;P1;durP1;ratioP1;P2;durP2;ratioP2
71759;SDS011;59919;48.112;16.280;2022-12-20T00:01:41;17.65;;;11.05;;
71759;SDS011;59919;48.112;16.280;2022-12-20T00:04:15;18.17;;;10.93;;
71759;SDS011;59919;48.112;16.280;2022-12-20T00:06:52;17.38;;;10.00;;
71759;SDS011;59919;48.112;16.280;2022-12-20T00:09:26;16.83;;;10.43;;
71759;SDS011;59919;48.112;16.280;2022-12-20T00:11:57;18.13;;;11.00;;
71759;SDS011;59919;48.112;16.280;2022-12-20T00:14:28;16.80;;;10.18;;
71759;SDS011;59919;48.112;16.280;2022-12-20T00:17:00;19.88;;;10.95;;
71759;SDS011;59919;48.112;16.280;2022-12-20T00:19:34;18.15;;;10.77;;
71759;SDS011;59919;48.112;16.280;2022-12-20T00:22:10;16.33;;;10.32;;
71759;SDS011;59919;48.112;16.280;2022-12-20T00:24:43;16.60;;;10.23;;
71759;SDS011;59919;48.112;16.280;2022-12-20T00:27:15;18.88;;;10.65;;
71759;SDS011;59919;48.112;16.280;2022-12-20T00:29:49;17.13;;;10.85;;
71759;SDS011;59919;48.112;16.280;2022-12-20T00:32:22;15.68;;;10.13;;
71759;SDS011;59919;48.112;16.280;2022-12-20T00:34:53;17.05;;;10.52;;
71759;SDS011;59919;48.112;16.280;2022-12-20T00:37:27;17.50;;;10.80;;
71759;SDS011;59919;48.112;16.280;2022-12-20T00:39:59;17.95;;;10.18;;
71759;SDS011;59919;48.112;16.280;2022-12-20T00:42:33;16.80;;;10.32;;
71759;SDS011;59919;48.112;16.280;2022-12-20T00:45:06;18.17;;;10.43;;
71759;SDS011;59919;48.112;16.280;2022-12-20T00:47:42;17.65;;;10.57;;
71759;SDS011;59919;48.112;16.280;2022-12-20T00:50:15;16.63;;;10.13;;
71759;SDS011;59919;48.112;16.280;2022-12-20T00:52:52;17.52;;;10.20;;
71759;SDS011;59919;48.112;16.280;2022-12-20T00:55:23;18.10;;;10.35;;
71759;SDS011;59919;48.112;16.280;2022-12-20T00:57:59;17.67;;;10.05;;
71759;SDS011;59919;48.112;16.280;2022-12-20T01:03:03;16.60;;;10.07;;
71759;SDS011;59919;48.112;16.280;2022-12-20T01:05:35;19.17;;;10.85;;
71759;SDS011;59919;48.112;16.280;2022-12-20T01:08:09;17.52;;;10.48;;
71759;SDS011;59919;48.112;16.280;2022-12-20T01:10:40;17.05;;;10.55;;
71759;SDS011;59919;48.112;16.280;2022-12-20T01:13:12;20.35;;;11.13;;
71759;SDS011;59919;48.112;16.280;2022-12-20T01:15:45;18.33;;;11.02;;
71759;SDS011;59919;48.112;16.280;2022-12-20T01:18:16;18.92;;;11.18;;
71759;SDS011;59919;48.112;16.280;2022-12-20T01:20:52;19.42;;;10.65;;
71759;SDS011;59919;48.112;16.280;2022-12-20T01:23:31;18.95;;;10.38;;
71759;SDS011;59919;48.112;16.280;2022-12-20T01:26:05;16.27;;;9.63;;
71759;SDS011;59919;48.112;16.280;2022-12-20T01:28:41;17.93;;;10.40;;
71759;SDS011;59919;48.112;16.280;2022-12-20T01:31:17;16.67;;;10.50;;
71759;SDS011;59919;48.112;16.280;2022-12-20T01:33:49;16.95;;;10.35;;
71759;SDS011;59919;48.112;16.280;2022-12-20T01:36:26;19.98;;;11.23;;
71759;SDS011;59919;48.112;16.280;2022-12-20T01:39:10;19.15;;;10.57;;
71759;SDS011;59919;48.112;16.280;2022-12-20T01:41:43;16.63;;;10.20;;
71759;SDS011;59919;48.112;16.280;2022-12-20T01:46:50;17.52;;;10.40;;
71759;SDS011;59919;48.112;16.280;2022-12-20T01:51:57;17.25;;;10.07;;
71759;SDS011;59919;48.112;16.280;2022-12-20T01:57:15;16.33;;;9.85;;
71759;SDS011;59919;48.112;16.280;2022-12-20T01:59:50;16.47;;;10.10;;
71759;SDS011;59919;48.112;16.280;2022-12-20T02:02:24;16.33;;;9.95;;
71759;SDS011;59919;48.112;16.280;2022-12-20T02:04:56;18.33;;;11.00;;
71759;SDS011;59919;48.112;16.280;2022-12-20T02:07:32;16.10;;;10.23;;
71759;SDS011;59919;48.112;16.280;2022-12-20T02:10:07;18.10;;;10.50;;
71759;SDS011;59919;48.112;16.280;2022-12-20T02:12:44;17.60;;;10.07;;
71759;SDS011;59919;48.112;16.280;2022-12-20T02:18:26;18.08;;;10.65;;
71759;SDS011;59919;48.112;16.280;2022-12-20T02:21:11;18.23;;;10.65;;
71759;SDS011;59919;48.112;16.280;2022-12-20T02:35:34;17.92;;;10.80;;
71759;SDS011;59919;48.112;16.280;2022-12-20T02:44:10;17.65;;;9.80;;
71759;SDS011;59919;48.112;16.280;2022-12-20T02:47:07;18.88;;;10.80;;
71759;SDS011;59919;48.112;16.280;2022-12-20T02:49:42;16.95;;;9.77;;
71759;SDS011;59919;48.112;16.280;2022-12-20T02:52:19;17.55;;;10.18;;
71759;SDS011;59919;48.112;16.280;2022-12-20T02:54:56;16.70;;;9.85;;
71759;SDS011;59919;48.112;16.280;2022-12-20T03:00:24;17.85;;;10.20;;
71759;SDS011;59919;48.112;16.280;2022-12-20T03:03:00;17.65;;;10.40;;
71759;SDS011;59919;48.112;16.280;2022-12-20T03:05:52;18.65;;;10.73;;
71759;SDS011;59919;48.112;16.280;2022-12-20T03:08:26;19.67;;;11.07;;
71759;SDS011;59919;48.112;16.280;2022-12-20T03:10:58;18.00;;;10.93;;
71759;SDS011;59919;48.112;16.280;2022-12-20T03:13:29;20.23;;;10.65;;
71759;SDS011;59919;48.112;16.280;2022-12-20T03:16:04;18.42;;;10.27;;
71759;SDS011;59919;48.112;16.280;2022-12-20T03:18:36;19.40;;;10.57;;
71759;SDS011;59919;48.112;16.280;2022-12-20T03:21:09;18.45;;;11.10;;
71759;SDS011;59919;48.112;16.280;2022-12-20T03:23:46;17.08;;;10.20;;
71759;SDS011;59919;48.112;16.280;2022-12-20T03:26:17;18.63;;;10.50;;
71759;SDS011;59919;48.112;16.280;2022-12-20T03:28:56;19.33;;;11.23;;
71759;SDS011;59919;48.112;16.280;2022-12-20T03:31:27;16.60;;;10.23;;
71759;SDS011;59919;48.112;16.280;2022-12-20T03:34:01;18.88;;;10.50;;
71759;SDS011;59919;48.112;16.280;2022-12-20T03:36:35;17.17;;;10.35;;
71759;SDS011;59919;48.112;16.280;2022-12-20T03:39:10;17.40;;;10.95;;
71759;SDS011;59919;48.112;16.280;2022-12-20T03:41:43;19.15;;;10.05;;
71759;SDS011;59919;48.112;16.280;2022-12-20T03:44:16;17.70;;;9.75;;
71759;SDS011;59919;48.112;16.280;2022-12-20T03:46:47;18.08;;;10.88;;
71759;SDS011;59919;48.112;16.280;2022-12-20T03:49:20;16.55;;;10.05;;
71759;SDS011;59919;48.112;16.280;2022-12-20T03:51:54;19.48;;;10.63;;
71759;SDS011;59919;48.112;16.280;2022-12-20T03:54:25;15.15;;;9.40;;
71759;SDS011;59919;48.112;16.280;2022-12-20T03:56:56;17.33;;;9.75;;
71759;SDS011;59919;48.112;16.280;2022-12-20T03:59:33;20.75;;;11.13;;
71759;SDS011;59919;48.112;16.280;2022-12-20T04:02:06;19.08;;;10.27;;
71759;SDS011;59919;48.112;16.280;2022-12-20T04:04:37;17.50;;;10.10;;
71759;SDS011;59919;48.112;16.280;2022-12-20T04:07:08;18.23;;;10.50;;
71759;SDS011;59919;48.112;16.280;2022-12-20T04:09:40;16.50;;;10.23;;
71759;SDS011;59919;48.112;16.280;2022-12-20T04:12:11;17.77;;;10.30;;
71759;SDS011;59919;48.112;16.280;2022-12-20T04:14:50;16.63;;;10.13;;
71759;SDS011;59919;48.112;16.280;2022-12-20T04:17:24;17.38;;;9.93;;
71759;SDS011;59919;48.112;16.280;2022-12-20T04:19:55;18.17;;;10.98;;
71759;SDS011;59919;48.112;16.280;2022-12-20T04:22:26;19.98;;;10.40;;
71759;SDS011;59919;48.112;16.280;2022-12-20T04:25:03;18.05;;;10.77;;
71759;SDS011;59919;48.112;16.280;2022-12-20T04:27:37;18.02;;;10.52;;
71759;SDS011;59919;48.112;16.280;2022-12-20T04:30:11;18.15;;;10.15;;
71759;SDS011;59919;48.112;16.280;2022-12-20T04:32:47;18.25;;;10.60;;
71759;SDS011;59919;48.112;16.280;2022-12-20T04:35:19;17.85;;;10.40;;
71759;SDS011;59919;48.112;16.280;2022-12-20T04:37:53;21.17;;;10.98;;
71759;SDS011;59919;48.112;16.280;2022-12-20T04:40:27;16.45;;;10.10;;
71759;SDS011;59919;48.112;16.280;2022-12-20T04:43:01;18.92;;;11.02;;
71759;SDS011;59919;48.112;16.280;2022-12-20T04:45:32;18.38;;;10.95;;
71759;SDS011;59919;48.112;16.280;2022-12-20T04:48:06;17.50;;;10.77;;
71759;SDS011;59919;48.112;16.280;2022-12-20T04:50:37;19.23;;;11.02;;
71759;SDS011;59919;48.112;16.280;2022-12-20T04:53:11;18.25;;;10.95;;
71759;SDS011;59919;48.112;16.280;2022-12-20T04:56:08;17.05;;;9.98;;
71759;SDS011;59919;48.112;16.280;2022-12-20T04:58:39;15.77;;;9.88;;
71759;SDS011;59919;48.112;16.280;2022-12-20T05:01:13;18.10;;;10.65;;
71759;SDS011;59919;48.112;16.280;2022-12-20T05:03:49;16.83;;;9.88;;
71759;SDS011;59919;48.112;16.280;2022-12-20T05:06:23;18.80;;;10.68;;
71759;SDS011;59919;48.112;16.280;2022-12-20T05:08:56;18.40;;;9.88;;
71759;SDS011;59919;48.112;16.280;2022-12-20T05:11:33;19.38;;;11.70;;
71759;SDS011;59919;48.112;16.280;2022-12-20T05:14:06;16.92;;;10.68;;
71759;SDS011;59919;48.112;16.280;2022-12-20T05:16:43;17.80;;;10.15;;
71759;SDS011;59919;48.112;16.280;2022-12-20T05:19:17;17.88;;;10.70;;
71759;SDS011;59919;48.112;16.280;2022-12-20T05:21:53;19.73;;;11.10;;
71759;SDS011;59919;48.112;16.280;2022-12-20T05:24:43;18.92;;;10.68;;
71759;SDS011;59919;48.112;16.280;2022-12-20T05:27:32;16.42;;;10.52;;
71759;SDS011;59919;48.112;16.280;2022-12-20T05:30:07;17.20;;;10.35;;
71759;SDS011;59919;48.112;16.280;2022-12-20T05:32:44;19.80;;;10.52;;
71759;SDS011;59919;48.112;16.280;2022-12-20T05:35:15;17.88;;;10.50;;
71759;SDS011;59919;48.112;16.280;2022-12-20T05:37:46;16.63;;;9.77;;
71759;SDS011;59919;48.112;16.280;2022-12-20T05:40:23;16.85;;;9.48;;
71759;SDS011;59919;48.112;16.280;2022-12-20T05:42:57;17.17;;;9.88;;
71759;SDS011;59919;48.112;16.280;2022-12-20T05:45:31;18.35;;;11.15;;
71759;SDS011;59919;48.112;16.280;2022-12-20T05:48:05;19.55;;;11.00;;
71759;SDS011;59919;48.112;16.280;2022-12-20T05:50:36;16.85;;;9.80;;
71759;SDS011;59919;48.112;16.280;2022-12-20T05:53:07;18.83;;;10.52;;
71759;SDS011;59919;48.112;16.280;2022-12-20T05:55:51;17.75;;;9.80;;
71759;SDS011;59919;48.112;16.280;2022-12-20T05:58:25;19.33;;;10.35;;
71759;SDS011;59919;48.112;16.280;2022-12-20T06:00:59;17.23;;;9.68;;
71759;SDS011;59919;48.112;16.280;2022-12-20T06:03:35;19.67;;;10.82;;
71759;SDS011;59919;48.112;16.280;2022-12-20T06:06:07;16.83;;;10.35;;
71759;SDS011;59919;48.112;16.280;2022-12-20T06:08:41;20.02;;;10.68;;
71759;SDS011;59919;48.112;16.280;2022-12-20T06:11:12;17.98;;;10.98;;
71759;SDS011;59919;48.112;16.280;2022-12-20T06:13:43;18.77;;;10.38;;
71759;SDS011;59919;48.112;16.280;2022-12-20T06:16:14;17.38;;;11.15;;
71759;SDS011;59919;48.112;16.280;2022-12-20T06:18:55;17.90;;;10.77;;
71759;SDS011;59919;48.112;16.280;2022-12-20T06:21:31;18.60;;;10.63;;
71759;SDS011;59919;48.112;16.280;2022-12-20T06:24:05;18.77;;;10.37;;
71759;SDS011;59919;48.112;16.280;2022-12-20T06:26:45;18.30;;;10.60;;
71759;SDS011;59919;48.112;16.280;2022-12-20T06:29:18;18.33;;;11.02;;
71759;SDS011;59919;48.112;16.280;2022-12-20T06:31:57;16.48;;;10.38;;
71759;SDS011;59919;48.112;16.280;2022-12-20T06:34:28;17.80;;;9.95;;
71759;SDS011;59919;48.112;16.280;2022-12-20T06:36:59;19.92;;;10.98;;
71759;SDS011;59919;48.112;16.280;2022-12-20T06:39:35;19.38;;;10.75;;
71759;SDS011;59919;48.112;16.280;2022-12-20T06:42:06;20.80;;;11.73;;
71759;SDS011;59919;48.112;16.280;2022-12-20T06:44:37;15.98;;;9.30;;
71759;SDS011;59919;48.112;16.280;2022-12-20T06:47:08;13.95;;;8.05;;
71759;SDS011;59919;48.112;16.280;2022-12-20T06:49:45;16.50;;;9.15;;
71759;SDS011;59919;48.112;16.280;2022-12-20T06:52:23;12.90;;;8.23;;
71759;SDS011;59919;48.112;16.280;2022-12-20T06:54:55;15.00;;;8.50;;
71759;SDS011;59919;48.112;16.280;2022-12-20T06:57:29;15.05;;;8.35;;
71759;SDS011;59919;48.112;16.280;2022-12-20T07:00:00;14.13;;;8.70;;
71759;SDS011;59919;48.112;16.280;2022-12-20T07:02:31;15.07;;;8.27;;
71759;SDS011;59919;48.112;16.280;2022-12-20T07:05:02;13.50;;;8.77;;
71759;SDS011;59919;48.112;16.280;2022-12-20T07:07:33;19.90;;;8.65;;
71759;SDS011;59919;48.112;16.280;2022-12-20T07:10:04;17.75;;;8.48;;
71759;SDS011;59919;48.112;16.280;2022-12-20T07:12:36;15.02;;;8.65;;
71759;SDS011;59919;48.112;16.280;2022-12-20T07:15:10;16.55;;;8.57;;
71759;SDS011;59919;48.112;16.280;2022-12-20T07:17:44;15.48;;;9.07;;
71759;SDS011;59919;48.112;16.280;2022-12-20T07:20:15;16.85;;;9.75;;
71759;SDS011;59919;48.112;16.280;2022-12-20T07:22:51;16.52;;;9.45;;
71759;SDS011;59919;48.112;16.280;2022-12-20T07:25:26;15.43;;;8.63;;
71759;SDS011;59919;48.112;16.280;2022-12-20T07:28:03;15.73;;;9.20;;
71759;SDS011;59919;48.112;16.280;2022-12-20T07:30:37;18.00;;;9.10;;
71759;SDS011;59919;48.112;16.280;2022-12-20T07:33:11;16.20;;;9.57;;
71759;SDS011;59919;48.112;16.280;2022-12-20T07:35:43;17.45;;;8.88;;
71759;SDS011;59919;48.112;16.280;2022-12-20T07:38:16;18.23;;;8.73;;
71759;SDS011;59919;48.112;16.280;2022-12-20T07:40:47;16.35;;;8.65;;
71759;SDS011;59919;48.112;16.280;2022-12-20T07:43:18;14.57;;;9.27;;
71759;SDS011;59919;48.112;16.280;2022-12-20T07:45:56;18.90;;;9.98;;
71759;SDS011;59919;48.112;16.280;2022-12-20T07:48:27;18.63;;;9.77;;
71759;SDS011;59919;48.112;16.280;2022-12-20T07:51:01;17.77;;;10.10;;
71759;SDS011;59919;48.112;16.280;2022-12-20T07:53:38;16.80;;;9.63;;
71759;SDS011;59919;48.112;16.280;2022-12-20T07:56:13;17.20;;;9.45;;
71759;SDS011;59919;48.112;16.280;2022-12-20T07:58:46;15.35;;;9.05;;
71759;SDS011;59919;48.112;16.280;2022-12-20T08:01:24;16.63;;;9.45;;
71759;SDS011;59919;48.112;16.280;2022-12-20T08:04:07;18.10;;;10.05;;
71759;SDS011;59919;48.112;16.280;2022-12-20T08:06:44;17.63;;;9.07;;
71759;SDS011;59919;48.112;16.280;2022-12-20T08:09:16;17.83;;;9.52;;
71759;SDS011;59919;48.112;16.280;2022-12-20T08:11:47;15.98;;;9.50;;
71759;SDS011;59919;48.112;16.280;2022-12-20T08:14:21;18.13;;;9.95;;
71759;SDS011;59919;48.112;16.280;2022-12-20T08:16:57;17.88;;;9.63;;
71759;SDS011;59919;48.112;16.280;2022-12-20T08:19:31;16.63;;;9.20;;
71759;SDS011;59919;48.112;16.280;2022-12-20T08:22:02;16.75;;;9.77;;
71759;SDS011;59919;48.112;16.280;2022-12-20T08:24:33;18.23;;;9.77;;
71759;SDS011;59919;48.112;16.280;2022-12-20T08:27:07;18.10;;;9.68;;
71759;SDS011;59919;48.112;16.280;2022-12-20T08:29:38;20.60;;;9.82;;
71759;SDS011;59919;48.112;16.280;2022-12-20T08:32:13;18.27;;;9.77;;
71759;SDS011;59919;48.112;16.280;2022-12-20T08:34:45;19.60;;;10.27;;
71759;SDS011;59919;48.112;16.280;2022-12-20T08:37:18;18.00;;;9.57;;
71759;SDS011;59919;48.112;16.280;2022-12-20T08:39:49;19.67;;;10.23;;
71759;SDS011;59919;48.112;16.280;2022-12-20T08:42:23;20.10;;;10.07;;
71759;SDS011;59919;48.112;16.280;2022-12-20T08:44:57;16.83;;;9.00;;
71759;SDS011;59919;48.112;16.280;2022-12-20T08:47:31;22.45;;;10.15;;
71759;SDS011;59919;48.112;16.280;2022-12-20T08:50:02;33.45;;;10.35;;
71759;SDS011;59919;48.112;16.280;2022-12-20T08:52:36;32.75;;;10.43;;
71759;SDS011;59919;48.112;16.280;2022-12-20T08:55:12;43.60;;;11.50;;
71759;SDS011;59919;48.112;16.280;2022-12-20T08:57:44;40.80;;;11.20;;
71759;SDS011;59919;48.112;16.280;2022-12-20T09:00:15;44.03;;;11.35;;
71759;SDS011;59919;48.112;16.280;2022-12-20T09:02:49;46.63;;;11.50;;
71759;SDS011;59919;48.112;16.280;2022-12-20T09:05:24;48.80;;;11.27;;
71759;SDS011;59919;48.112;16.280;2022-12-20T09:07:57;48.72;;;12.23;;
71759;SDS011;59919;48.112;16.280;2022-12-20T09:10:28;33.25;;;11.10;;
71759;SDS011;59919;48.112;16.280;2022-12-20T09:12:59;41.05;;;12.20;;
71759;SDS011;59919;48.112;16.280;2022-12-20T09:15:32;28.70;;;11.30;;
71759;SDS011;59919;48.112;16.280;2022-12-20T09:18:11;35.00;;;10.88;;
71759;SDS011;59919;48.112;16.280;2022-12-20T09:20:45;38.95;;;11.32;;
71759;SDS011;59919;48.112;16.280;2022-12-20T09:23:16;28.00;;;12.05;;
71759;SDS011;59919;48.112;16.280;2022-12-20T09:25:47;33.22;;;11.50;;
71759;SDS011;59919;48.112;16.280;2022-12-20T09:28:18;27.58;;;10.65;;
71759;SDS011;59919;48.112;16.280;2022-12-20T09:30:52;35.42;;;10.98;;
71759;SDS011;59919;48.112;16.280;2022-12-20T09:33:28;29.80;;;10.18;;
71759;SDS011;59919;48.112;16.280;2022-12-20T09:36:00;32.00;;;11.10;;
71759;SDS011;59919;48.112;16.280;2022-12-20T09:38:33;27.67;;;10.75;;
71759;SDS011;59919;48.112;16.280;2022-12-20T09:41:05;20.50;;;10.35;;
71759;SDS011;59919;48.112;16.280;2022-12-20T09:43:38;23.33;;;9.77;;
71759;SDS011;59919;48.112;16.280;2022-12-20T09:46:11;29.48;;;10.70;;
71759;SDS011;59919;48.112;16.280;2022-12-20T09:48:44;21.25;;;9.88;;
71759;SDS011;59919;48.112;16.280;2022-12-20T09:53:58;24.98;;;9.73;;
71759;SDS011;59919;48.112;16.280;2022-12-20T10:02:50;29.38;;;10.05;;
71759;SDS011;59919;48.112;16.280;2022-12-20T10:05:27;21.85;;;9.68;;
71759;SDS011;59919;48.112;16.280;2022-12-20T10:14:17;24.40;;;10.38;;
71759;SDS011;59919;48.112;16.280;2022-12-20T10:16:56;19.55;;;9.60;;
71759;SDS011;59919;48.112;16.280;2022-12-20T10:25:54;24.08;;;10.73;;
71759;SDS011;59919;48.112;16.280;2022-12-20T10:28:30;18.43;;;9.90;;
71759;SDS011;59919;48.112;16.280;2022-12-20T10:31:12;19.88;;;10.43;;
71759;SDS011;59919;48.112;16.280;2022-12-20T10:33:44;19.10;;;9.80;;
71759;SDS011;59919;48.112;16.280;2022-12-20T10:39:08;20.00;;;9.45;;
71759;SDS011;59919;48.112;16.280;2022-12-20T10:41:48;22.98;;;10.00;;
71759;SDS011;59919;48.112;16.280;2022-12-20T10:44:23;31.38;;;11.43;;
71759;SDS011;59919;48.112;16.280;2022-12-20T10:46:59;19.35;;;9.77;;
71759;SDS011;59919;48.112;16.280;2022-12-20T10:49:34;19.10;;;9.30;;
71759;SDS011;59919;48.112;16.280;2022-12-20T10:54:39;22.30;;;9.57;;
71759;SDS011;59919;48.112;16.280;2022-12-20T10:59:57;20.67;;;9.90;;
71759;SDS011;59919;48.112;16.280;2022-12-20T11:07:52;21.05;;;10.10;;
71759;SDS011;59919;48.112;16.280;2022-12-20T11:13:02;19.25;;;9.20;;
71759;SDS011;59919;48.112;16.280;2022-12-20T11:15:36;20.20;;;9.73;;
71759;SDS011;59919;48.112;16.280;2022-12-20T11:29:06;17.65;;;9.30;;
71759;SDS011;59919;48.112;16.280;2022-12-20T11:34:29;16.52;;;9.40;;
71759;SDS011;59919;48.112;16.280;2022-12-20T11:37:18;20.13;;;9.68;;
71759;SDS011;59919;48.112;16.280;2022-12-20T11:43:43;16.80;;;9.30;;
71759;SDS011;59919;48.112;16.280;2022-12-20T11:51:33;17.50;;;9.48;;
71759;SDS011;59919;48.112;16.280;2022-12-20T11:54:09;20.35;;;10.55;;
71759;SDS011;59919;48.112;16.280;2022-12-20T11:57:20;18.27;;;9.90;;
71759;SDS011;59919;48.112;16.280;2022-12-20T11:59:57;18.27;;;9.85;;
71759;SDS011;59919;48.112;16.280;2022-12-20T12:02:38;16.92;;;9.35;;
71759;SDS011;59919;48.112;16.280;2022-12-20T12:05:23;16.38;;;9.68;;
71759;SDS011;59919;48.112;16.280;2022-12-20T12:08:00;15.63;;;8.82;;
71759;SDS011;59919;48.112;16.280;2022-12-20T12:10:40;20.92;;;9.70;;
71759;SDS011;59919;48.112;16.280;2022-12-20T12:13:22;15.68;;;9.10;;
71759;SDS011;59919;48.112;16.280;2022-12-20T12:18:38;17.20;;;9.02;;
71759;SDS011;59919;48.112;16.280;2022-12-20T12:26:59;16.30;;;9.00;;
71759;SDS011;59919;48.112;16.280;2022-12-20T12:29:34;16.67;;;9.48;;
71759;SDS011;59919;48.112;16.280;2022-12-20T12:32:12;15.48;;;8.32;;
71759;SDS011;59919;48.112;16.280;2022-12-20T12:35:13;18.25;;;9.43;;
71759;SDS011;59919;48.112;16.280;2022-12-20T12:46:22;18.77;;;9.40;;
71759;SDS011;59919;48.112;16.280;2022-12-20T12:48:59;17.60;;;8.77;;
71759;SDS011;59919;48.112;16.280;2022-12-20T12:51:35;19.67;;;9.10;;
71759;SDS011;59919;48.112;16.280;2022-12-20T12:54:15;23.45;;;9.75;;
71759;SDS011;59919;48.112;16.280;2022-12-20T12:57:22;24.92;;;10.60;;
71759;SDS011;59919;48.112;16.280;2022-12-20T12:59:54;24.55;;;9.40;;
71759;SDS011;59919;48.112;16.280;2022-12-20T13:02:32;23.05;;;8.95;;
71759;SDS011;59919;48.112;16.280;2022-12-20T13:18:16;17.33;;;9.10;;
71759;SDS011;59919;48.112;16.280;2022-12-20T13:27:00;21.92;;;9.45;;
71759;SDS011;59919;48.112;16.280;2022-12-20T13:29:33;19.80;;;9.15;;
71759;SDS011;59919;48.112;16.280;2022-12-20T13:32:47;30.23;;;8.30;;
71759;SDS011;59919;48.112;16.280;2022-12-20T13:40:42;25.92;;;8.85;;
71759;SDS011;59919;48.112;16.280;2022-12-20T13:49:00;21.55;;;9.40;;
71759;SDS011;59919;48.112;16.280;2022-12-20T13:51:33;18.10;;;8.60;;
71759;SDS011;59919;48.112;16.280;2022-12-20T13:54:05;17.25;;;8.30;;
71759;SDS011;59919;48.112;16.280;2022-12-20T13:56:46;18.05;;;8.90;;
71759;SDS011;59919;48.112;16.280;2022-12-20T14:01:57;18.65;;;8.90;;
71759;SDS011;59919;48.112;16.280;2022-12-20T14:04:40;17.48;;;9.00;;
71759;SDS011;59919;48.112;16.280;2022-12-20T14:07:15;15.55;;;9.13;;
71759;SDS011;59919;48.112;16.280;2022-12-20T14:09:53;19.15;;;8.95;;
71759;SDS011;59919;48.112;16.280;2022-12-20T14:12:27;18.48;;;9.70;;
71759;SDS011;59919;48.112;16.280;2022-12-20T14:15:18;15.50;;;8.77;;
71759;SDS011;59919;48.112;16.280;2022-12-20T14:17:52;20.35;;;10.35;;
71759;SDS011;59919;48.112;16.280;2022-12-20T14:20:25;16.80;;;9.35;;
71759;SDS011;59919;48.112;16.280;2022-12-20T14:23:04;14.88;;;8.73;;
71759;SDS011;59919;48.112;16.280;2022-12-20T14:25:53;17.60;;;8.73;;
71759;SDS011;59919;48.112;16.280;2022-12-20T14:31:21;17.13;;;9.20;;
71759;SDS011;59919;48.112;16.280;2022-12-20T14:36:35;16.10;;;9.00;;
71759;SDS011;59919;48.112;16.280;2022-12-20T14:44:41;17.80;;;8.95;;
71759;SDS011;59919;48.112;16.280;2022-12-20T14:47:14;14.27;;;8.70;;
71759;SDS011;59919;48.112;16.280;2022-12-20T14:49:51;18.17;;;9.73;;
71759;SDS011;59919;48.112;16.280;2022-12-20T14:54:58;19.05;;;8.40;;
71759;SDS011;59919;48.112;16.280;2022-12-20T15:00:14;20.45;;;8.80;;
71759;SDS011;59919;48.112;16.280;2022-12-20T15:02:56;19.95;;;8.30;;
71759;SDS011;59919;48.112;16.280;2022-12-20T15:13:41;17.90;;;8.05;;
71759;SDS011;59919;48.112;16.280;2022-12-20T15:16:27;15.55;;;7.85;;
71759;SDS011;59919;48.112;16.280;2022-12-20T15:19:00;15.38;;;8.10;;
71759;SDS011;59919;48.112;16.280;2022-12-20T15:21:33;14.02;;;8.35;;
71759;SDS011;59919;48.112;16.280;2022-12-20T15:24:13;15.95;;;8.73;;
71759;SDS011;59919;48.112;16.280;2022-12-20T15:26:51;18.67;;;8.48;;
71759;SDS011;59919;48.112;16.280;2022-12-20T15:29:26;18.05;;;8.13;;
71759;SDS011;59919;48.112;16.280;2022-12-20T15:32:04;22.48;;;9.63;;
71759;SDS011;59919;48.112;16.280;2022-12-20T15:34:46;19.13;;;8.73;;
71759;SDS011;59919;48.112;16.280;2022-12-20T15:37:17;18.05;;;8.57;;
71759;SDS011;59919;48.112;16.280;2022-12-20T15:39:48;16.50;;;9.18;;
71759;SDS011;59919;48.112;16.280;2022-12-20T15:42:21;18.20;;;9.05;;
71759;SDS011;59919;48.112;16.280;2022-12-20T15:44:59;20.13;;;8.25;;
71759;SDS011;59919;48.112;16.280;2022-12-20T15:47:31;14.13;;;9.13;;
71759;SDS011;59919;48.112;16.280;2022-12-20T15:50:02;16.90;;;8.27;;
71759;SDS011;59919;48.112;16.280;2022-12-20T15:52:33;19.65;;;9.38;;
71759;SDS011;59919;48.112;16.280;2022-12-20T15:55:05;19.40;;;9.00;;
71759;SDS011;59919;48.112;16.280;2022-12-20T15:57:36;18.55;;;8.65;;
71759;SDS011;59919;48.112;16.280;2022-12-20T16:00:08;16.55;;;8.60;;
71759;SDS011;59919;48.112;16.280;2022-12-20T16:02:41;19.70;;;9.15;;
71759;SDS011;59919;48.112;16.280;2022-12-20T16:05:12;23.58;;;9.82;;
71759;SDS011;59919;48.112;16.280;2022-12-20T16:07:43;17.58;;;9.40;;
71759;SDS011;59919;48.112;16.280;2022-12-20T16:10:20;22.00;;;9.57;;
71759;SDS011;59919;48.112;16.280;2022-12-20T16:12:51;19.55;;;9.75;;
71759;SDS011;59919;48.112;16.280;2022-12-20T16:15:22;17.83;;;8.57;;
71759;SDS011;59919;48.112;16.280;2022-12-20T16:17:58;21.17;;;9.65;;
71759;SDS011;59919;48.112;16.280;2022-12-20T16:20:32;15.82;;;9.02;;
71759;SDS011;59919;48.112;16.280;2022-12-20T16:23:40;19.23;;;9.73;;
71759;SDS011;59919;48.112;16.280;2022-12-20T16:26:04;17.67;;;8.90;;
71759;SDS011;59919;48.112;16.280;2022-12-20T16:28:36;15.52;;;8.82;;
71759;SDS011;59919;48.112;16.280;2022-12-20T16:31:09;15.40;;;8.63;;
71759;SDS011;59919;48.112;16.280;2022-12-20T16:34:02;16.38;;;8.80;;
71759;SDS011;59919;48.112;16.280;2022-12-20T16:36:35;15.52;;;8.55;;
71759;SDS011;59919;48.112;16.280;2022-12-20T16:39:09;18.52;;;8.90;;
71759;SDS011;59919;48.112;16.280;2022-12-20T16:41:40;17.63;;;8.57;;
71759;SDS011;59919;48.112;16.280;2022-12-20T16:44:14;21.90;;;8.75;;
71759;SDS011;59919;48.112;16.280;2022-12-20T16:46:49;18.27;;;9.98;;
71759;SDS011;59919;48.112;16.280;2022-12-20T16:49:20;15.77;;;9.25;;
71759;SDS011;59919;48.112;16.280;2022-12-20T16:51:51;21.67;;;8.73;;
71759;SDS011;59919;48.112;16.280;2022-12-20T16:54:22;26.70;;;9.15;;
71759;SDS011;59919;48.112;16.280;2022-12-20T16:56:53;34.28;;;9.95;;
71759;SDS011;59919;48.112;16.280;2022-12-20T16:59:26;25.60;;;9.90;;
71759;SDS011;59919;48.112;16.280;2022-12-20T17:01:57;21.92;;;10.15;;
71759;SDS011;59919;48.112;16.280;2022-12-20T17:04:30;26.13;;;9.88;;
71759;SDS011;59919;48.112;16.280;2022-12-20T17:07:04;22.45;;;9.15;;
71759;SDS011;59919;48.112;16.280;2022-12-20T17:09:38;23.23;;;9.15;;
71759;SDS011;59919;48.112;16.280;2022-12-20T17:12:16;24.20;;;9.52;;
71759;SDS011;59919;48.112;16.280;2022-12-20T17:14:49;22.92;;;9.20;;
71759;SDS011;59919;48.112;16.280;2022-12-20T17:17:23;21.63;;;9.70;;
71759;SDS011;59919;48.112;16.280;2022-12-20T17:19:55;30.67;;;10.60;;
71759;SDS011;59919;48.112;16.280;2022-12-20T17:22:30;26.58;;;9.95;;
71759;SDS011;59919;48.112;16.280;2022-12-20T17:25:05;27.23;;;9.95;;
71759;SDS011;59919;48.112;16.280;2022-12-20T17:27:44;19.02;;;9.18;;
71759;SDS011;59919;48.112;16.280;2022-12-20T17:30:15;19.27;;;9.75;;
71759;SDS011;59919;48.112;16.280;2022-12-20T17:32:53;22.50;;;10.07;;
71759;SDS011;59919;48.112;16.280;2022-12-20T17:35:26;24.42;;;10.07;;
71759;SDS011;59919;48.112;16.280;2022-12-20T17:38:00;20.05;;;9.77;;
71759;SDS011;59919;48.112;16.280;2022-12-20T17:40:38;21.33;;;9.68;;
71759;SDS011;59919;48.112;16.280;2022-12-20T17:43:10;22.50;;;9.27;;
71759;SDS011;59919;48.112;16.280;2022-12-20T17:45:42;21.33;;;9.88;;
71759;SDS011;59919;48.112;16.280;2022-12-20T17:48:13;19.10;;;10.20;;
71759;SDS011;59919;48.112;16.280;2022-12-20T17:50:44;19.05;;;9.68;;